createdAt,value
2023-03-06T00:00:49.095Z,11.45
2023-03-06T00:05:51.211Z,11.80
2023-03-06T00:10:53.318Z,10.93
2023-03-06T00:15:57.984Z,10.85
2023-03-06T00:21:00.159Z,11.07
2023-03-06T00:26:02.904Z,11.80
2023-03-06T00:31:05.150Z,12.63
2023-03-06T00:36:08.105Z,13.77
2023-03-06T00:41:10.889Z,12.88
2023-03-06T00:46:13.157Z,13.65
2023-03-06T00:51:17.457Z,15.98
2023-03-06T00:56:20.162Z,14.88
2023-03-06T01:01:23.506Z,14.85
2023-03-06T01:06:26.283Z,15.35
2023-03-06T01:11:28.749Z,14.77
2023-03-06T01:16:31.295Z,14.18
2023-03-06T01:21:33.451Z,14.52
2023-03-06T01:26:35.982Z,13.65
2023-03-06T01:31:38.207Z,13.90
2023-03-06T01:36:40.465Z,15.05
2023-03-06T01:41:42.670Z,13.90
2023-03-06T01:46:45.596Z,13.77
2023-03-06T01:51:53.168Z,14.05
2023-03-06T02:01:58.877Z,14.40
2023-03-06T02:07:02.242Z,14.02
2023-03-06T02:12:08.094Z,14.82
2023-03-06T02:17:10.895Z,14.50
2023-03-06T02:22:14.415Z,15.32
2023-03-06T02:27:17.889Z,15.43
2023-03-06T02:32:20.163Z,13.18
2023-03-06T02:37:22.631Z,16.40
2023-03-06T02:42:26.084Z,14.07
2023-03-06T02:47:29.821Z,14.02
2023-03-06T02:52:32.402Z,15.90
2023-03-06T02:57:34.549Z,16.35
2023-03-06T03:02:37.141Z,16.27
2023-03-06T03:07:39.370Z,17.33
2023-03-06T03:12:43.090Z,15.93
2023-03-06T03:17:45.378Z,14.95
2023-03-06T03:22:48.459Z,15.10
2023-03-06T03:27:50.877Z,12.82
2023-03-06T03:32:53.211Z,14.88
2023-03-06T03:37:56.080Z,14.32
2023-03-06T03:42:58.371Z,13.68
2023-03-06T03:48:00.602Z,12.27
2023-03-06T03:53:03.262Z,14.73
2023-03-06T03:58:05.970Z,14.38
2023-03-06T04:03:09.258Z,13.68
2023-03-06T04:08:15.996Z,14.98
2023-03-06T04:13:22.251Z,14.02
2023-03-06T04:18:25.297Z,14.43
2023-03-06T04:23:30.419Z,13.07
2023-03-06T04:28:32.804Z,15.73
2023-03-06T04:33:35.241Z,16.50
2023-03-06T04:38:37.645Z,15.77
2023-03-06T04:43:41.018Z,15.98
2023-03-06T04:48:43.233Z,17.98
2023-03-06T04:53:45.510Z,18.40
2023-03-06T04:58:47.759Z,19.58
2023-03-06T05:03:52.510Z,17.55
2023-03-06T05:08:54.884Z,14.13
2023-03-06T05:13:57.074Z,16.40
2023-03-06T05:18:59.226Z,18.10
2023-03-06T05:24:01.282Z,16.48
2023-03-06T05:29:03.368Z,16.10
2023-03-06T05:34:05.491Z,16.00
2023-03-06T05:39:07.670Z,12.85
2023-03-06T05:44:09.792Z,15.02
2023-03-06T05:49:11.903Z,15.57
2023-03-06T05:54:14.166Z,17.08
2023-03-06T05:59:16.381Z,17.92
2023-03-06T06:04:18.552Z,20.25
2023-03-06T06:09:22.687Z,22.98
2023-03-06T06:14:25.116Z,20.85
2023-03-06T06:19:29.371Z,23.15
2023-03-06T06:24:32.142Z,20.40
2023-03-06T06:29:34.396Z,14.30
2023-03-06T06:34:36.673Z,14.95
2023-03-06T06:39:38.856Z,13.95
2023-03-06T06:44:41.049Z,12.52
2023-03-06T06:49:43.405Z,13.52
2023-03-06T06:54:45.950Z,13.50
2023-03-06T06:59:48.305Z,13.15
2023-03-06T07:05:03.035Z,13.07
2023-03-06T07:10:06.841Z,12.88
2023-03-06T07:15:09.232Z,12.05
2023-03-06T07:20:12.918Z,13.20
2023-03-06T07:25:15.092Z,15.45
2023-03-06T07:30:17.360Z,13.82
2023-03-06T07:35:20.824Z,15.52
2023-03-06T07:40:23.635Z,14.93
2023-03-06T07:45:25.771Z,21.10
2023-03-06T07:50:28.043Z,27.83
2023-03-06T07:55:30.098Z,29.48
2023-03-06T08:00:32.417Z,25.67
2023-03-06T08:05:34.522Z,17.92
2023-03-06T08:10:36.811Z,14.13
2023-03-06T08:15:38.923Z,11.70
2023-03-06T08:20:41.145Z,10.90
2023-03-06T08:25:43.248Z,11.02
2023-03-06T08:30:45.331Z,10.98
2023-03-06T08:35:47.663Z,12.13
2023-03-06T08:40:49.831Z,12.80
2023-03-06T08:45:53.133Z,12.90
2023-03-06T08:50:55.359Z,13.60
2023-03-06T08:55:57.447Z,15.00
2023-03-06T09:00:59.746Z,14.50
2023-03-06T09:06:01.933Z,13.60
2023-03-06T09:11:04.287Z,13.52
2023-03-06T09:16:07.244Z,14.00
2023-03-06T09:21:09.747Z,15.18
2023-03-06T09:26:12.697Z,12.95
2023-03-06T09:31:19.110Z,13.70
2023-03-06T09:36:22.215Z,12.45
2023-03-06T09:41:42.347Z,12.80
2023-03-06T09:46:47.599Z,12.57
2023-03-06T09:51:52.603Z,13.75
2023-03-06T09:56:54.722Z,13.63
2023-03-06T10:02:02.926Z,14.00
2023-03-06T10:07:10.715Z,12.57
2023-03-06T10:12:24.532Z,12.48
2023-03-06T10:17:30.560Z,11.45
2023-03-06T10:22:38.892Z,10.48
2023-03-06T10:27:51.669Z,10.57
2023-03-06T10:32:58.132Z,10.48
2023-03-06T10:38:16.031Z,11.32
2023-03-06T10:43:18.178Z,10.43
2023-03-06T10:48:22.036Z,10.52
2023-03-06T10:53:26.342Z,9.88
2023-03-06T10:58:32.804Z,9.80
2023-03-06T11:03:36.316Z,9.60
2023-03-06T11:08:39.220Z,9.25
2023-03-06T11:13:42.823Z,10.02
2023-03-06T11:18:55.623Z,9.43
2023-03-06T11:24:04.353Z,9.35
2023-03-06T11:29:07.152Z,8.55
2023-03-06T11:34:12.361Z,9.40
2023-03-06T11:39:31.559Z,7.57
2023-03-06T11:49:41.023Z,7.40
2023-03-06T11:54:43.158Z,7.40
2023-03-06T11:59:48.461Z,7.72
2023-03-06T12:05:09.108Z,6.35
2023-03-06T12:10:14.671Z,6.47
2023-03-06T12:15:21.420Z,6.32
2023-03-06T12:20:44.095Z,5.95
2023-03-06T12:25:54.036Z,5.80
2023-03-06T12:31:10.770Z,5.30
2023-03-06T12:36:15.151Z,3.67
2023-03-06T12:41:22.752Z,4.80
2023-03-06T12:46:26.986Z,4.55
2023-03-06T12:51:29.706Z,3.80
2023-03-06T12:56:33.101Z,3.88
2023-03-06T13:01:35.219Z,3.50
2023-03-06T13:06:56.273Z,2.40
2023-03-06T13:12:05.726Z,2.88
2023-03-06T13:17:23.129Z,2.65
2023-03-06T13:22:29.316Z,2.47
2023-03-06T13:27:50.747Z,2.63
2023-03-06T13:32:53.900Z,3.00
2023-03-06T13:37:56.626Z,2.22
2023-03-06T13:43:07.921Z,2.38
2023-03-06T13:48:43.059Z,3.28
2023-03-06T13:53:58.378Z,3.03
2023-03-06T13:59:39.164Z,3.95
2023-03-06T14:04:58.108Z,3.38
2023-03-06T14:10:15.672Z,3.33
2023-03-06T14:15:20.485Z,3.22
2023-03-06T14:20:26.659Z,2.35
2023-03-06T14:25:30.122Z,1.50
2023-03-06T14:30:32.309Z,1.67
2023-03-06T14:35:34.710Z,1.50
2023-03-06T14:40:41.263Z,1.75
2023-03-06T14:45:52.550Z,2.38
2023-03-06T14:50:56.143Z,1.98
2023-03-06T14:56:04.387Z,1.60
2023-03-06T15:01:08.834Z,2.42
2023-03-06T15:06:14.936Z,1.60
2023-03-06T15:11:17.040Z,2.13
2023-03-06T15:16:19.242Z,2.05
2023-03-06T15:21:22.662Z,1.83
2023-03-06T15:26:31.749Z,2.38
2023-03-06T15:31:34.687Z,1.77
2023-03-06T15:36:43.072Z,1.75
2023-03-06T15:41:45.291Z,1.45
2023-03-06T15:46:48.518Z,1.58
2023-03-06T15:51:52.130Z,1.90
2023-03-06T15:56:54.212Z,1.80
2023-03-06T16:01:56.316Z,1.98
2023-03-06T16:06:58.588Z,2.10
2023-03-06T16:12:00.722Z,1.88
2023-03-06T16:17:02.928Z,1.45
2023-03-06T16:22:05.082Z,1.50
2023-03-06T16:27:07.242Z,1.73
2023-03-06T16:32:12.607Z,1.67
2023-03-06T16:37:14.839Z,1.60
2023-03-06T16:42:17.967Z,1.48
2023-03-06T16:47:20.187Z,1.52
2023-03-06T16:52:22.331Z,1.48
2023-03-06T16:57:24.751Z,1.83
2023-03-06T17:02:26.922Z,1.30
2023-03-06T17:07:29.845Z,1.67
2023-03-06T17:12:31.938Z,1.55
2023-03-06T17:17:34.483Z,1.02
2023-03-06T17:22:37.172Z,1.65
2023-03-06T17:27:39.296Z,1.95
2023-03-06T17:32:41.567Z,1.75
2023-03-06T17:37:43.742Z,1.50
2023-03-06T17:42:45.871Z,1.85
2023-03-06T17:47:49.149Z,1.80
2023-03-06T17:52:51.439Z,1.70
2023-03-06T17:57:53.628Z,1.65
2023-03-06T18:02:55.772Z,1.67
2023-03-06T18:07:57.875Z,1.50
2023-03-06T18:13:00.453Z,2.05
2023-03-06T18:18:02.715Z,1.40
2023-03-06T18:23:04.836Z,2.05
2023-03-06T18:28:07.352Z,1.95
2023-03-06T18:33:11.024Z,2.22
2023-03-06T18:38:13.220Z,1.67
2023-03-06T18:43:15.420Z,2.03
2023-03-06T18:48:17.554Z,1.83
2023-03-06T18:53:20.404Z,1.67
2023-03-06T18:58:22.645Z,1.70
2023-03-06T19:03:25.736Z,1.90
2023-03-06T19:08:27.872Z,1.40
2023-03-06T19:13:30.497Z,0.95
2023-03-06T19:18:32.689Z,1.63
2023-03-06T19:23:34.777Z,1.48
2023-03-06T19:28:38.032Z,1.60
2023-03-06T19:33:40.899Z,1.55
2023-03-06T19:38:43.063Z,1.25
2023-03-06T19:43:45.253Z,1.25
2023-03-06T19:48:47.441Z,1.63
2023-03-06T19:53:49.538Z,1.23
2023-03-06T19:58:52.107Z,1.45
2023-03-06T20:03:58.895Z,1.25
2023-03-06T20:09:02.356Z,3.00
2023-03-06T20:14:05.651Z,2.15
2023-03-06T20:19:08.921Z,1.35
2023-03-06T20:24:16.894Z,1.77
2023-03-06T20:29:19.134Z,1.95
2023-03-06T20:34:21.524Z,1.75
2023-03-06T20:39:23.774Z,1.20
2023-03-06T20:44:26.017Z,1.15
2023-03-06T20:49:28.780Z,1.67
2023-03-06T20:54:30.899Z,1.20
2023-03-06T20:59:33.169Z,2.13
2023-03-06T21:04:35.608Z,1.70
2023-03-06T21:09:38.013Z,2.00
2023-03-06T21:14:40.319Z,2.10
2023-03-06T21:19:42.833Z,2.15
2023-03-06T21:24:45.318Z,2.40
2023-03-06T21:29:47.441Z,2.10
2023-03-06T21:34:51.336Z,2.00
2023-03-06T21:39:53.546Z,2.00
2023-03-06T21:44:55.689Z,1.90
2023-03-06T21:49:58.496Z,2.67
2023-03-06T21:55:00.660Z,1.90
2023-03-06T22:00:05.123Z,2.15
2023-03-06T22:05:12.751Z,1.60
2023-03-06T22:10:15.978Z,2.22
2023-03-06T22:15:18.210Z,2.63
2023-03-06T22:20:20.329Z,1.70
2023-03-06T22:25:22.387Z,2.35
2023-03-06T22:30:24.493Z,2.33
2023-03-06T22:35:26.872Z,2.33
2023-03-06T22:40:28.968Z,1.80
2023-03-06T22:45:34.652Z,1.50
2023-03-06T22:50:36.933Z,2.30
2023-03-06T22:55:39.034Z,2.75
2023-03-06T23:00:41.142Z,2.35
2023-03-06T23:05:43.388Z,2.35
2023-03-06T23:10:45.528Z,2.30
2023-03-06T23:16:07.132Z,2.22
2023-03-06T23:21:27.809Z,3.00
2023-03-06T23:26:48.847Z,1.80
2023-03-06T23:31:50.927Z,1.60
2023-03-06T23:36:53.020Z,1.40
2023-03-06T23:41:56.285Z,1.00
2023-03-06T23:46:58.412Z,1.85
2023-03-06T23:52:00.657Z,1.45
2023-03-06T23:57:02.765Z,1.48
